sensor_id;sensor_type;location;lat;lon;timestamp;pressure;altitude;pressure_sealevel;temperature;humidity
7614;BME280;3848;42.016;23.098;2023-01-09T00:01:36;97545.78;;;0.36;100.00
7614;BME280;3848;42.016;23.098;2023-01-09T00:04:03;97545.78;;;0.36;100.00
7614;BME280;3848;42.016;23.098;2023-01-09T00:06:31;97545.25;;;0.43;100.00
7614;BME280;3848;42.016;23.098;2023-01-09T00:08:57;97541.97;;;0.44;100.00
7614;BME280;3848;42.016;23.098;2023-01-09T00:11:24;97534.31;;;0.41;100.00
7614;BME280;3848;42.016;23.098;2023-01-09T00:13:51;97538.47;;;0.41;100.00
7614;BME280;3848;42.016;23.098;2023-01-09T00:16:18;97530.00;;;0.37;100.00
7614;BME280;3848;42.016;23.098;2023-01-09T00:18:46;97537.88;;;0.46;100.00
7614;BME280;3848;42.016;23.098;2023-01-09T00:21:13;97539.63;;;0.49;100.00
7614;BME280;3848;42.016;23.098;2023-01-09T00:23:40;97515.97;;;0.41;100.00
7614;BME280;3848;42.016;23.098;2023-01-09T00:26:09;97530.59;;;0.52;100.00
7614;BME280;3848;42.016;23.098;2023-01-09T00:28:37;97543.13;;;0.54;100.00
7614;BME280;3848;42.016;23.098;2023-01-09T00:31:05;97519.69;;;0.50;100.00
7614;BME280;3848;42.016;23.098;2023-01-09T00:33:34;97529.16;;;0.59;100.00
7614;BME280;3848;42.016;23.098;2023-01-09T00:36:03;97533.41;;;0.61;100.00
7614;BME280;3848;42.016;23.098;2023-01-09T00:38:30;97527.66;;;0.63;100.00
7614;BME280;3848;42.016;23.098;2023-01-09T00:40:57;97523.25;;;0.57;100.00
7614;BME280;3848;42.016;23.098;2023-01-09T00:43:27;97532.81;;;0.67;100.00
7614;BME280;3848;42.016;23.098;2023-01-09T00:45:55;97530.31;;;0.67;100.00
7614;BME280;3848;42.016;23.098;2023-01-09T00:48:22;97516.97;;;0.67;100.00
7614;BME280;3848;42.016;23.098;2023-01-09T00:50:51;97522.16;;;0.73;100.00
7614;BME280;3848;42.016;23.098;2023-01-09T00:53:21;97535.38;;;0.69;100.00
7614;BME280;3848;42.016;23.098;2023-01-09T00:55:49;97532.97;;;0.72;100.00
7614;BME280;3848;42.016;23.098;2023-01-09T00:58:16;97528.78;;;0.71;100.00
7614;BME280;3848;42.016;23.098;2023-01-09T01:00:43;97516.84;;;0.64;100.00
7614;BME280;3848;42.016;23.098;2023-01-09T01:03:10;97445.50;;;0.27;100.00
7614;BME280;3848;42.016;23.098;2023-01-09T01:05:37;97508.03;;;0.73;100.00
7614;BME280;3848;42.016;23.098;2023-01-09T01:08:22;97499.78;;;0.76;100.00
7614;BME280;3848;42.016;23.098;2023-01-09T01:10:49;97508.88;;;0.74;100.00
7614;BME280;3848;42.016;23.098;2023-01-09T01:13:16;97518.06;;;0.75;100.00
7614;BME280;3848;42.016;23.098;2023-01-09T01:15:44;97511.94;;;0.67;100.00
7614;BME280;3848;42.016;23.098;2023-01-09T01:18:12;97500.75;;;0.57;100.00
7614;BME280;3848;42.016;23.098;2023-01-09T01:20:39;97503.72;;;0.47;100.00
7614;BME280;3848;42.016;23.098;2023-01-09T01:23:06;97500.91;;;0.39;100.00
7614;BME280;3848;42.016;23.098;2023-01-09T01:25:36;97503.09;;;0.30;100.00
7614;BME280;3848;42.016;23.098;2023-01-09T01:28:03;97501.50;;;0.32;100.00
7614;BME280;3848;42.016;23.098;2023-01-09T01:30:30;97493.38;;;0.38;100.00
7614;BME280;3848;42.016;23.098;2023-01-09T01:32:57;97479.59;;;0.25;100.00
7614;BME280;3848;42.016;23.098;2023-01-09T01:35:24;97486.28;;;0.26;100.00
7614;BME280;3848;42.016;23.098;2023-01-09T01:37:52;97487.06;;;0.25;100.00
7614;BME280;3848;42.016;23.098;2023-01-09T01:40:19;97482.63;;;0.18;100.00
7614;BME280;3848;42.016;23.098;2023-01-09T01:42:49;97482.69;;;0.19;100.00
7614;BME280;3848;42.016;23.098;2023-01-09T01:45:18;97469.91;;;0.12;100.00
7614;BME280;3848;42.016;23.098;2023-01-09T01:47:49;97479.28;;;0.17;100.00
7614;BME280;3848;42.016;23.098;2023-01-09T01:50:24;97469.06;;;0.11;100.00
7614;BME280;3848;42.016;23.098;2023-01-09T01:52:59;97464.13;;;0.13;100.00
7614;BME280;3848;42.016;23.098;2023-01-09T01:55:29;97450.03;;;0.15;100.00
7614;BME280;3848;42.016;23.098;2023-01-09T01:58:01;97452.00;;;0.22;100.00
7614;BME280;3848;42.016;23.098;2023-01-09T02:00:31;97443.56;;;0.20;100.00
7614;BME280;3848;42.016;23.098;2023-01-09T02:03:00;97441.84;;;0.19;100.00
7614;BME280;3848;42.016;23.098;2023-01-09T02:05:27;97456.25;;;0.24;100.00
7614;BME280;3848;42.016;23.098;2023-01-09T02:07:54;97449.66;;;0.26;100.00
7614;BME280;3848;42.016;23.098;2023-01-09T02:10:22;97450.63;;;0.30;100.00
7614;BME280;3848;42.016;23.098;2023-01-09T02:12:49;97435.56;;;0.28;100.00
7614;BME280;3848;42.016;23.098;2023-01-09T02:15:18;97449.81;;;0.31;100.00
7614;BME280;3848;42.016;23.098;2023-01-09T02:18:16;97447.31;;;0.31;100.00
7614;BME280;3848;42.016;23.098;2023-01-09T02:20:51;97433.22;;;0.33;100.00
7614;BME280;3848;42.016;23.098;2023-01-09T02:29:57;97411.19;;;0.45;100.00
7614;BME280;3848;42.016;23.098;2023-01-09T02:32:34;97418.63;;;0.44;100.00
7614;BME280;3848;42.016;23.098;2023-01-09T02:35:12;97422.53;;;0.37;100.00
7614;BME280;3848;42.016;23.098;2023-01-09T02:37:47;97426.31;;;0.26;100.00
7614;BME280;3848;42.016;23.098;2023-01-09T02:40:22;97436.63;;;0.13;100.00
7614;BME280;3848;42.016;23.098;2023-01-09T02:42:50;97433.91;;;0.07;100.00
7614;BME280;3848;42.016;23.098;2023-01-09T02:45:20;97435.16;;;-0.05;100.00
7614;BME280;3848;42.016;23.098;2023-01-09T02:47:47;97431.84;;;-0.04;100.00
7614;BME280;3848;42.016;23.098;2023-01-09T02:50:17;97434.25;;;-0.07;100.00
7614;BME280;3848;42.016;23.098;2023-01-09T02:52:59;97430.00;;;-0.09;100.00
7614;BME280;3848;42.016;23.098;2023-01-09T02:55:42;97435.59;;;-0.15;100.00
7614;BME280;3848;42.016;23.098;2023-01-09T02:58:21;97436.09;;;-0.23;100.00
7614;BME280;3848;42.016;23.098;2023-01-09T03:01:13;97449.31;;;-0.26;100.00
7614;BME280;3848;42.016;23.098;2023-01-09T03:03:46;97428.13;;;-0.36;100.00
7614;BME280;3848;42.016;23.098;2023-01-09T03:06:19;97443.59;;;-0.44;100.00
7614;BME280;3848;42.016;23.098;2023-01-09T03:08:52;97436.09;;;-0.44;100.00
7614;BME280;3848;42.016;23.098;2023-01-09T03:11:20;97445.97;;;-0.47;100.00
7614;BME280;3848;42.016;23.098;2023-01-09T03:13:50;97445.91;;;-0.49;100.00
7614;BME280;3848;42.016;23.098;2023-01-09T03:16:20;97442.63;;;-0.48;100.00
7614;BME280;3848;42.016;23.098;2023-01-09T03:18:50;97438.38;;;-0.50;100.00
7614;BME280;3848;42.016;23.098;2023-01-09T03:21:18;97437.47;;;-0.52;100.00
7614;BME280;3848;42.016;23.098;2023-01-09T03:23:47;97440.63;;;-0.56;100.00
7614;BME280;3848;42.016;23.098;2023-01-09T03:26:14;97438.25;;;-0.53;100.00
7614;BME280;3848;42.016;23.098;2023-01-09T03:28:41;97430.53;;;-0.59;100.00
7614;BME280;3848;42.016;23.098;2023-01-09T03:31:08;97434.00;;;-0.56;100.00
7614;BME280;3848;42.016;23.098;2023-01-09T03:33:37;97437.34;;;-0.55;100.00
7614;BME280;3848;42.016;23.098;2023-01-09T03:36:04;97441.03;;;-0.46;100.00
7614;BME280;3848;42.016;23.098;2023-01-09T03:38:31;97443.75;;;-0.41;100.00
7614;BME280;3848;42.016;23.098;2023-01-09T03:40:58;97443.78;;;-0.40;100.00
7614;BME280;3848;42.016;23.098;2023-01-09T03:43:25;97431.38;;;-0.59;100.00
7614;BME280;3848;42.016;23.098;2023-01-09T03:45:52;97444.81;;;-0.55;100.00
7614;BME280;3848;42.016;23.098;2023-01-09T03:48:18;97449.59;;;-0.62;100.00
7614;BME280;3848;42.016;23.098;2023-01-09T03:50:48;97450.28;;;-0.64;100.00
7614;BME280;3848;42.016;23.098;2023-01-09T03:53:15;97438.41;;;-0.70;100.00
7614;BME280;3848;42.016;23.098;2023-01-09T03:55:44;97444.88;;;-0.75;100.00
7614;BME280;3848;42.016;23.098;2023-01-09T03:58:11;97446.06;;;-0.86;100.00
7614;BME280;3848;42.016;23.098;2023-01-09T04:00:37;97452.13;;;-1.00;100.00
7614;BME280;3848;42.016;23.098;2023-01-09T04:03:05;97454.84;;;-1.15;100.00
7614;BME280;3848;42.016;23.098;2023-01-09T04:05:32;97457.63;;;-1.27;100.00
7614;BME280;3848;42.016;23.098;2023-01-09T04:08:00;97456.53;;;-1.33;100.00
7614;BME280;3848;42.016;23.098;2023-01-09T04:10:27;97460.06;;;-1.28;100.00
7614;BME280;3848;42.016;23.098;2023-01-09T04:12:54;97453.59;;;-1.25;100.00
7614;BME280;3848;42.016;23.098;2023-01-09T04:15:21;97456.28;;;-1.20;100.00
7614;BME280;3848;42.016;23.098;2023-01-09T04:17:48;97460.41;;;-1.20;100.00
7614;BME280;3848;42.016;23.098;2023-01-09T04:20:15;97458.66;;;-1.23;100.00
7614;BME280;3848;42.016;23.098;2023-01-09T04:22:42;97462.63;;;-1.27;100.00
7614;BME280;3848;42.016;23.098;2023-01-09T04:25:10;97456.78;;;-1.27;100.00
7614;BME280;3848;42.016;23.098;2023-01-09T04:27:37;97460.41;;;-1.40;100.00
7614;BME280;3848;42.016;23.098;2023-01-09T04:30:05;97460.19;;;-1.25;100.00
7614;BME280;3848;42.016;23.098;2023-01-09T04:32:32;97459.34;;;-1.26;100.00
7614;BME280;3848;42.016;23.098;2023-01-09T04:34:59;97466.31;;;-1.18;100.00
7614;BME280;3848;42.016;23.098;2023-01-09T04:37:26;97467.03;;;-1.21;100.00
7614;BME280;3848;42.016;23.098;2023-01-09T04:39:53;97462.06;;;-1.21;100.00
7614;BME280;3848;42.016;23.098;2023-01-09T04:42:23;97458.91;;;-1.17;100.00
7614;BME280;3848;42.016;23.098;2023-01-09T04:44:49;97457.38;;;-1.13;100.00
7614;BME280;3848;42.016;23.098;2023-01-09T04:47:18;97448.75;;;-1.21;100.00
7614;BME280;3848;42.016;23.098;2023-01-09T04:49:45;97460.66;;;-1.14;100.00
7614;BME280;3848;42.016;23.098;2023-01-09T04:52:12;97457.44;;;-1.12;100.00
7614;BME280;3848;42.016;23.098;2023-01-09T04:54:39;97460.00;;;-1.10;100.00
7614;BME280;3848;42.016;23.098;2023-01-09T04:57:06;97461.78;;;-1.08;100.00
7614;BME280;3848;42.016;23.098;2023-01-09T04:59:34;97454.56;;;-1.02;100.00
7614;BME280;3848;42.016;23.098;2023-01-09T05:02:01;97453.97;;;-0.96;100.00
7614;BME280;3848;42.016;23.098;2023-01-09T05:04:27;97445.03;;;-0.91;100.00
7614;BME280;3848;42.016;23.098;2023-01-09T05:06:54;97438.41;;;-0.90;100.00
7614;BME280;3848;42.016;23.098;2023-01-09T05:09:21;97444.13;;;-0.93;100.00
7614;BME280;3848;42.016;23.098;2023-01-09T05:11:48;97437.91;;;-1.03;100.00
7614;BME280;3848;42.016;23.098;2023-01-09T05:14:15;97430.03;;;-1.12;100.00
7614;BME280;3848;42.016;23.098;2023-01-09T05:16:44;97430.50;;;-1.20;100.00
7614;BME280;3848;42.016;23.098;2023-01-09T05:19:11;97436.72;;;-1.30;100.00
7614;BME280;3848;42.016;23.098;2023-01-09T05:21:37;97443.03;;;-1.38;100.00
7614;BME280;3848;42.016;23.098;2023-01-09T05:24:05;97440.09;;;-1.67;100.00
7614;BME280;3848;42.016;23.098;2023-01-09T05:26:31;97439.25;;;-1.87;100.00
7614;BME280;3848;42.016;23.098;2023-01-09T05:28:58;97447.06;;;-1.79;100.00
7614;BME280;3848;42.016;23.098;2023-01-09T05:31:25;97435.38;;;-1.80;100.00
7614;BME280;3848;42.016;23.098;2023-01-09T05:33:54;97425.63;;;-1.75;100.00
7614;BME280;3848;42.016;23.098;2023-01-09T05:36:22;97430.72;;;-1.72;100.00
7614;BME280;3848;42.016;23.098;2023-01-09T05:38:49;97365.94;;;-2.11;100.00
7614;BME280;3848;42.016;23.098;2023-01-09T05:41:16;97437.28;;;-1.74;100.00
7614;BME280;3848;42.016;23.098;2023-01-09T05:43:42;97443.72;;;-1.79;100.00
7614;BME280;3848;42.016;23.098;2023-01-09T05:46:09;97434.72;;;-1.76;100.00
7614;BME280;3848;42.016;23.098;2023-01-09T05:48:36;97442.69;;;-1.65;100.00
7614;BME280;3848;42.016;23.098;2023-01-09T05:51:04;97431.72;;;-1.69;100.00
7614;BME280;3848;42.016;23.098;2023-01-09T05:53:31;97437.75;;;-1.83;100.00
7614;BME280;3848;42.016;23.098;2023-01-09T05:55:58;97441.88;;;-1.83;100.00
7614;BME280;3848;42.016;23.098;2023-01-09T05:58:25;97436.38;;;-1.76;100.00
7614;BME280;3848;42.016;23.098;2023-01-09T06:00:52;97440.69;;;-1.72;100.00
7614;BME280;3848;42.016;23.098;2023-01-09T06:03:19;97441.53;;;-1.72;100.00
7614;BME280;3848;42.016;23.098;2023-01-09T06:05:45;97438.88;;;-1.57;100.00
7614;BME280;3848;42.016;23.098;2023-01-09T06:08:14;97424.19;;;-1.51;100.00
7614;BME280;3848;42.016;23.098;2023-01-09T06:10:40;97426.44;;;-1.57;100.00
7614;BME280;3848;42.016;23.098;2023-01-09T06:13:07;97416.84;;;-1.48;100.00
7614;BME280;3848;42.016;23.098;2023-01-09T06:15:34;97410.38;;;-1.44;100.00
7614;BME280;3848;42.016;23.098;2023-01-09T06:18:01;97409.97;;;-1.34;100.00
7614;BME280;3848;42.016;23.098;2023-01-09T06:20:28;97404.75;;;-1.40;100.00
7614;BME280;3848;42.016;23.098;2023-01-09T06:22:55;97406.16;;;-1.26;100.00
7614;BME280;3848;42.016;23.098;2023-01-09T06:25:24;97400.31;;;-1.27;100.00
7614;BME280;3848;42.016;23.098;2023-01-09T06:27:50;97397.38;;;-1.18;100.00
7614;BME280;3848;42.016;23.098;2023-01-09T06:30:18;97394.69;;;-1.23;100.00
7614;BME280;3848;42.016;23.098;2023-01-09T06:32:46;97387.59;;;-1.13;100.00
7614;BME280;3848;42.016;23.098;2023-01-09T06:35:13;97406.19;;;-1.05;100.00
7614;BME280;3848;42.016;23.098;2023-01-09T06:37:44;97407.28;;;-1.19;100.00
7614;BME280;3848;42.016;23.098;2023-01-09T06:40:12;97395.63;;;-1.40;100.00
7614;BME280;3848;42.016;23.098;2023-01-09T06:42:43;97389.59;;;-1.45;100.00
7614;BME280;3848;42.016;23.098;2023-01-09T06:45:10;97400.06;;;-1.52;100.00
7614;BME280;3848;42.016;23.098;2023-01-09T06:47:38;97389.44;;;-1.67;100.00
7614;BME280;3848;42.016;23.098;2023-01-09T06:50:06;97392.94;;;-1.64;100.00
7614;BME280;3848;42.016;23.098;2023-01-09T06:52:33;97395.50;;;-1.62;100.00
7614;BME280;3848;42.016;23.098;2023-01-09T06:55:00;97399.81;;;-1.58;100.00
7614;BME280;3848;42.016;23.098;2023-01-09T06:57:27;97409.53;;;-1.64;100.00
7614;BME280;3848;42.016;23.098;2023-01-09T06:59:55;97405.84;;;-1.53;100.00
7614;BME280;3848;42.016;23.098;2023-01-09T07:02:22;97408.03;;;-1.41;100.00
7614;BME280;3848;42.016;23.098;2023-01-09T07:04:49;97399.22;;;-1.33;100.00
7614;BME280;3848;42.016;23.098;2023-01-09T07:07:16;97391.53;;;-1.18;100.00
7614;BME280;3848;42.016;23.098;2023-01-09T07:09:44;97390.09;;;-1.13;100.00
7614;BME280;3848;42.016;23.098;2023-01-09T07:12:11;97318.59;;;-1.55;100.00
7614;BME280;3848;42.016;23.098;2023-01-09T07:14:39;97381.81;;;-1.12;100.00
7614;BME280;3848;42.016;23.098;2023-01-09T07:17:08;97346.34;;;-1.26;100.00
7614;BME280;3848;42.016;23.098;2023-01-09T07:19:36;97388.47;;;-0.92;100.00
7614;BME280;3848;42.016;23.098;2023-01-09T07:22:03;97390.22;;;-0.89;100.00
7614;BME280;3848;42.016;23.098;2023-01-09T07:24:30;97393.75;;;-0.84;100.00
7614;BME280;3848;42.016;23.098;2023-01-09T07:26:57;97397.47;;;-0.75;100.00
7614;BME280;3848;42.016;23.098;2023-01-09T07:29:24;97404.47;;;-0.66;100.00
7614;BME280;3848;42.016;23.098;2023-01-09T07:31:50;97401.50;;;-0.57;100.00
7614;BME280;3848;42.016;23.098;2023-01-09T07:34:19;97401.78;;;-0.50;100.00
7614;BME280;3848;42.016;23.098;2023-01-09T07:36:46;97409.44;;;-0.45;100.00
7614;BME280;3848;42.016;23.098;2023-01-09T07:39:15;97400.56;;;-0.39;100.00
7614;BME280;3848;42.016;23.098;2023-01-09T07:41:42;97395.97;;;-0.28;100.00
7614;BME280;3848;42.016;23.098;2023-01-09T07:44:09;97389.19;;;-0.10;100.00
7614;BME280;3848;42.016;23.098;2023-01-09T07:46:36;97388.75;;;0.01;100.00
7614;BME280;3848;42.016;23.098;2023-01-09T07:49:02;97402.81;;;0.21;100.00
7614;BME280;3848;42.016;23.098;2023-01-09T07:51:31;97404.16;;;0.13;100.00
7614;BME280;3848;42.016;23.098;2023-01-09T07:53:58;97393.84;;;0.26;100.00
7614;BME280;3848;42.016;23.098;2023-01-09T07:56:25;97390.59;;;0.52;100.00
7614;BME280;3848;42.016;23.098;2023-01-09T07:58:51;97386.41;;;0.51;100.00
7614;BME280;3848;42.016;23.098;2023-01-09T08:01:18;97410.41;;;0.70;100.00
7614;BME280;3848;42.016;23.098;2023-01-09T08:03:45;97418.38;;;0.84;100.00
7614;BME280;3848;42.016;23.098;2023-01-09T08:06:12;97418.59;;;0.90;100.00
7614;BME280;3848;42.016;23.098;2023-01-09T08:08:40;97401.16;;;0.68;100.00
7614;BME280;3848;42.016;23.098;2023-01-09T08:11:07;97426.31;;;0.72;100.00
7614;BME280;3848;42.016;23.098;2023-01-09T08:13:34;97421.50;;;0.78;100.00
7614;BME280;3848;42.016;23.098;2023-01-09T08:16:01;97413.53;;;0.88;100.00
7614;BME280;3848;42.016;23.098;2023-01-09T08:18:28;97409.19;;;1.08;100.00
7614;BME280;3848;42.016;23.098;2023-01-09T08:20:55;97411.78;;;1.11;100.00
7614;BME280;3848;42.016;23.098;2023-01-09T08:23:22;97421.47;;;1.26;100.00
7614;BME280;3848;42.016;23.098;2023-01-09T08:25:51;97422.38;;;1.28;100.00
7614;BME280;3848;42.016;23.098;2023-01-09T08:28:18;97420.50;;;1.22;100.00
7614;BME280;3848;42.016;23.098;2023-01-09T08:30:45;97421.91;;;1.40;100.00
7614;BME280;3848;42.016;23.098;2023-01-09T08:33:12;97418.28;;;1.57;100.00
7614;BME280;3848;42.016;23.098;2023-01-09T08:35:39;97419.84;;;1.80;100.00
7614;BME280;3848;42.016;23.098;2023-01-09T08:38:08;97417.81;;;1.96;100.00
7614;BME280;3848;42.016;23.098;2023-01-09T08:40:34;97391.81;;;1.92;100.00
7614;BME280;3848;42.016;23.098;2023-01-09T08:43:03;97386.38;;;2.07;100.00
7614;BME280;3848;42.016;23.098;2023-01-09T08:45:47;97380.84;;;2.17;100.00
7614;BME280;3848;42.016;23.098;2023-01-09T08:48:31;97386.63;;;2.44;100.00
7614;BME280;3848;42.016;23.098;2023-01-09T08:50:57;97375.72;;;2.74;100.00
7614;BME280;3848;42.016;23.098;2023-01-09T08:53:24;97388.91;;;2.98;100.00
7614;BME280;3848;42.016;23.098;2023-01-09T08:55:51;97390.25;;;3.19;100.00
7614;BME280;3848;42.016;23.098;2023-01-09T08:58:19;97383.28;;;3.42;100.00
7614;BME280;3848;42.016;23.098;2023-01-09T09:00:46;97383.88;;;3.67;100.00
7614;BME280;3848;42.016;23.098;2023-01-09T09:03:13;97372.00;;;3.98;100.00
7614;BME280;3848;42.016;23.098;2023-01-09T09:05:41;97355.34;;;4.03;100.00
7614;BME280;3848;42.016;23.098;2023-01-09T09:08:08;97355.59;;;4.15;100.00
7614;BME280;3848;42.016;23.098;2023-01-09T09:10:35;97353.81;;;4.52;100.00
7614;BME280;3848;42.016;23.098;2023-01-09T09:13:02;97351.19;;;4.93;100.00
7614;BME280;3848;42.016;23.098;2023-01-09T09:15:30;97362.69;;;5.27;100.00
7614;BME280;3848;42.016;23.098;2023-01-09T09:17:59;97355.66;;;5.62;100.00
7614;BME280;3848;42.016;23.098;2023-01-09T09:20:27;97341.06;;;5.95;100.00
7614;BME280;3848;42.016;23.098;2023-01-09T09:22:55;97348.53;;;6.54;100.00
7614;BME280;3848;42.016;23.098;2023-01-09T09:25:22;97329.91;;;7.32;100.00
7614;BME280;3848;42.016;23.098;2023-01-09T09:27:49;97320.31;;;8.18;100.00
7614;BME280;3848;42.016;23.098;2023-01-09T09:30:17;97314.63;;;8.81;100.00
7614;BME280;3848;42.016;23.098;2023-01-09T09:32:46;97309.56;;;9.56;100.00
7614;BME280;3848;42.016;23.098;2023-01-09T09:35:14;97296.75;;;10.26;100.00
7614;BME280;3848;42.016;23.098;2023-01-09T09:37:42;97291.34;;;10.80;100.00
7614;BME280;3848;42.016;23.098;2023-01-09T09:40:15;97283.69;;;10.87;100.00
7614;BME280;3848;42.016;23.098;2023-01-09T09:43:01;97270.13;;;10.90;100.00
7614;BME280;3848;42.016;23.098;2023-01-09T09:45:54;97247.13;;;11.05;100.00
7614;BME280;3848;42.016;23.098;2023-01-09T09:48:34;97241.66;;;11.48;100.00
7614;BME280;3848;42.016;23.098;2023-01-09T09:51:25;97237.81;;;11.92;100.00
7614;BME280;3848;42.016;23.098;2023-01-09T09:53:57;97214.63;;;12.14;100.00
7614;BME280;3848;42.016;23.098;2023-01-09T09:56:27;97195.72;;;12.31;100.00
7614;BME280;3848;42.016;23.098;2023-01-09T09:58:58;97189.09;;;12.17;100.00
7614;BME280;3848;42.016;23.098;2023-01-09T10:01:32;97171.19;;;12.22;100.00
7614;BME280;3848;42.016;23.098;2023-01-09T10:04:06;97157.53;;;12.28;100.00
7614;BME280;3848;42.016;23.098;2023-01-09T10:06:39;97143.69;;;12.44;100.00
7614;BME280;3848;42.016;23.098;2023-01-09T10:09:14;97128.88;;;12.67;100.00
7614;BME280;3848;42.016;23.098;2023-01-09T10:11:46;97100.28;;;12.99;100.00
7614;BME280;3848;42.016;23.098;2023-01-09T10:14:14;97111.94;;;13.59;97.99
7614;BME280;3848;42.016;23.098;2023-01-09T10:17:02;97093.06;;;14.04;87.70
7614;BME280;3848;42.016;23.098;2023-01-09T10:19:45;97082.59;;;14.52;80.40
7614;BME280;3848;42.016;23.098;2023-01-09T10:22:19;97067.81;;;14.28;77.33
7614;BME280;3848;42.016;23.098;2023-01-09T10:24:59;97064.50;;;14.61;78.19
7614;BME280;3848;42.016;23.098;2023-01-09T10:27:42;97064.22;;;15.05;74.83
7614;BME280;3848;42.016;23.098;2023-01-09T10:30:30;97061.13;;;15.54;68.21
7614;BME280;3848;42.016;23.098;2023-01-09T10:33:09;97061.44;;;15.43;67.02
7614;BME280;3848;42.016;23.098;2023-01-09T10:35:51;97047.06;;;15.38;66.24
7614;BME280;3848;42.016;23.098;2023-01-09T10:38:23;97047.34;;;15.29;67.76
7614;BME280;3848;42.016;23.098;2023-01-09T10:40:54;97051.06;;;14.86;74.48
7614;BME280;3848;42.016;23.098;2023-01-09T10:43:28;97048.47;;;14.87;78.72
7614;BME280;3848;42.016;23.098;2023-01-09T10:46:01;97039.59;;;14.99;77.22
7614;BME280;3848;42.016;23.098;2023-01-09T10:48:33;97033.25;;;14.83;77.72
7614;BME280;3848;42.016;23.098;2023-01-09T10:51:03;97029.41;;;14.67;79.39
7614;BME280;3848;42.016;23.098;2023-01-09T10:53:38;97018.19;;;14.71;79.38
7614;BME280;3848;42.016;23.098;2023-01-09T10:56:13;97017.75;;;14.87;75.25
7614;BME280;3848;42.016;23.098;2023-01-09T10:58:43;97017.53;;;14.95;70.53
7614;BME280;3848;42.016;23.098;2023-01-09T11:01:10;97017.41;;;14.69;72.49
7614;BME280;3848;42.016;23.098;2023-01-09T11:03:37;97015.56;;;14.74;73.83
7614;BME280;3848;42.016;23.098;2023-01-09T11:06:17;97011.81;;;14.87;72.68
7614;BME280;3848;42.016;23.098;2023-01-09T11:08:47;97011.44;;;14.68;73.56
7614;BME280;3848;42.016;23.098;2023-01-09T11:11:30;97006.84;;;14.48;75.41
7614;BME280;3848;42.016;23.098;2023-01-09T11:14:04;96990.94;;;14.37;77.00
7614;BME280;3848;42.016;23.098;2023-01-09T11:16:31;96993.44;;;14.39;77.16
7614;BME280;3848;42.016;23.098;2023-01-09T11:18:59;96985.41;;;14.20;77.02
7614;BME280;3848;42.016;23.098;2023-01-09T11:21:31;96986.00;;;14.29;75.85
7614;BME280;3848;42.016;23.098;2023-01-09T11:27:15;96977.50;;;14.63;71.60
7614;BME280;3848;42.016;23.098;2023-01-09T11:30:04;96925.19;;;14.42;70.22
7614;BME280;3848;42.016;23.098;2023-01-09T11:32:33;96972.63;;;14.85;70.59
7614;BME280;3848;42.016;23.098;2023-01-09T11:35:03;96953.41;;;14.70;69.77
7614;BME280;3848;42.016;23.098;2023-01-09T11:37:33;96967.06;;;14.71;68.97
7614;BME280;3848;42.016;23.098;2023-01-09T11:40:01;96968.97;;;14.62;69.41
7614;BME280;3848;42.016;23.098;2023-01-09T11:42:29;96964.13;;;14.52;70.57
7614;BME280;3848;42.016;23.098;2023-01-09T11:45:15;96954.28;;;14.37;72.44
7614;BME280;3848;42.016;23.098;2023-01-09T11:47:43;96946.84;;;13.93;75.74
7614;BME280;3848;42.016;23.098;2023-01-09T11:50:17;96947.47;;;13.67;80.84
7614;BME280;3848;42.016;23.098;2023-01-09T11:53:10;96939.25;;;13.18;89.95
7614;BME280;3848;42.016;23.098;2023-01-09T11:55:38;96950.75;;;12.95;96.47
7614;BME280;3848;42.016;23.098;2023-01-09T11:58:07;96944.16;;;12.83;100.00
7614;BME280;3848;42.016;23.098;2023-01-09T12:00:41;96945.28;;;12.70;100.00
7614;BME280;3848;42.016;23.098;2023-01-09T12:03:22;96947.13;;;12.62;100.00
7614;BME280;3848;42.016;23.098;2023-01-09T12:05:59;96939.47;;;12.62;100.00
7614;BME280;3848;42.016;23.098;2023-01-09T12:08:50;96950.50;;;12.64;100.00
7614;BME280;3848;42.016;23.098;2023-01-09T12:11:26;96931.91;;;12.59;100.00
7614;BME280;3848;42.016;23.098;2023-01-09T12:16:56;96940.22;;;12.23;100.00
7614;BME280;3848;42.016;23.098;2023-01-09T12:19:42;96924.28;;;12.13;100.00
7614;BME280;3848;42.016;23.098;2023-01-09T12:22:22;96934.44;;;12.14;100.00
7614;BME280;3848;42.016;23.098;2023-01-09T12:25:05;96936.91;;;12.17;100.00
7614;BME280;3848;42.016;23.098;2023-01-09T12:27:46;96932.56;;;12.23;100.00
7614;BME280;3848;42.016;23.098;2023-01-09T12:30:37;96936.88;;;12.19;100.00
7614;BME280;3848;42.016;23.098;2023-01-09T12:33:22;96929.16;;;12.24;100.00
7614;BME280;3848;42.016;23.098;2023-01-09T12:36:00;96918.97;;;12.24;100.00
7614;BME280;3848;42.016;23.098;2023-01-09T12:38:39;96913.94;;;12.20;100.00
7614;BME280;3848;42.016;23.098;2023-01-09T12:41:19;96922.56;;;12.13;100.00
7614;BME280;3848;42.016;23.098;2023-01-09T12:44:03;96914.25;;;12.02;100.00
7614;BME280;3848;42.016;23.098;2023-01-09T12:46:36;96919.31;;;12.04;100.00
7614;BME280;3848;42.016;23.098;2023-01-09T12:49:23;96909.16;;;12.02;100.00
7614;BME280;3848;42.016;23.098;2023-01-09T12:51:55;96911.78;;;11.98;100.00
7614;BME280;3848;42.016;23.098;2023-01-09T12:54:32;96898.56;;;11.76;100.00
7614;BME280;3848;42.016;23.098;2023-01-09T12:57:03;96846.56;;;11.38;100.00
7614;BME280;3848;42.016;23.098;2023-01-09T12:59:37;96911.28;;;11.76;100.00
7614;BME280;3848;42.016;23.098;2023-01-09T13:02:23;96905.50;;;11.65;100.00
7614;BME280;3848;42.016;23.098;2023-01-09T13:04:55;96900.44;;;11.63;100.00
7614;BME280;3848;42.016;23.098;2023-01-09T13:07:28;96902.19;;;11.61;100.00
7614;BME280;3848;42.016;23.098;2023-01-09T13:10:01;96885.38;;;11.52;100.00
7614;BME280;3848;42.016;23.098;2023-01-09T13:12:35;96900.50;;;11.60;100.00
7614;BME280;3848;42.016;23.098;2023-01-09T13:15:13;96898.88;;;11.56;100.00
7614;BME280;3848;42.016;23.098;2023-01-09T13:17:48;96891.25;;;11.54;100.00
7614;BME280;3848;42.016;23.098;2023-01-09T13:20:19;96893.81;;;11.54;100.00
7614;BME280;3848;42.016;23.098;2023-01-09T13:22:48;96883.69;;;11.51;100.00
7614;BME280;3848;42.016;23.098;2023-01-09T13:25:40;96875.22;;;11.51;100.00
7614;BME280;3848;42.016;23.098;2023-01-09T13:28:17;96876.09;;;11.48;100.00
7614;BME280;3848;42.016;23.098;2023-01-09T13:31:18;96885.50;;;11.43;100.00
7614;BME280;3848;42.016;23.098;2023-01-09T13:33:52;96886.41;;;11.39;100.00
7614;BME280;3848;42.016;23.098;2023-01-09T13:36:23;96886.50;;;11.33;100.00